Time;durP1;ratioP1;P1;durP2;ratioP2;P2;SDS_P1;SDS_P2;PMS_P1;PMS_P2;Temp;Humidity;BMP_temperature;BMP_pressure;BME280_temperature;BME280_humidity;BME280_pressure;Samples;Min_cycle;Max_cycle;Signal;HPM_P1;HPM_P2
2022/05/20 00:01:43;;;;;;;8.30;4.55;;;11.50;99.90;;;;;;5037338;28;20060;-74
2022/05/20 00:04:09;;;;;;;10.57;5.07;;;11.50;99.90;;;;;;5035311;28;20029;-74
2022/05/20 00:06:35;;;;;;;9.93;3.83;;;11.40;99.90;;;;;;5036631;28;20017;-74
2022/05/20 00:09:00;;;;;;;8.48;4.93;;;11.40;99.90;;;;;;5035207;28;20099;-74
2022/05/20 00:11:26;;;;;;;10.18;4.40;;;11.40;99.90;;;;;;5036764;28;20018;-74
2022/05/20 00:13:51;;;;;;;8.20;3.92;;;11.40;99.90;;;;;;5036502;28;20032;-73
2022/05/20 00:16:17;;;;;;;8.50;4.57;;;11.40;99.90;;;;;;5036338;28;20014;-74
2022/05/20 00:18:42;;;;;;;8.32;4.60;;;11.40;99.90;;;;;;5036369;28;20071;-74
2022/05/20 00:21:08;;;;;;;10.05;4.55;;;11.30;99.90;;;;;;5036434;28;20025;-74
2022/05/20 00:23:34;;;;;;;7.97;4.35;;;11.40;99.90;;;;;;5036297;28;20025;-74
2022/05/20 00:25:59;;;;;;;7.43;4.32;;;11.40;99.90;;;;;;5036161;28;20025;-74
2022/05/20 00:28:29;;;;;;;11.52;4.97;;;11.40;99.90;;;;;;5034970;28;20024;-73
2022/05/20 00:31:04;;;;;;;7.95;4.47;;;11.40;99.90;;;;;;5036267;28;20128;-73
2022/05/20 00:33:31;;;;;;;14.25;5.57;;;11.40;99.90;;;;;;5036353;28;20468;-76
2022/05/20 00:35:57;;;;;;;9.75;5.03;;;11.30;99.90;;;;;;5035456;28;20018;-76
2022/05/20 00:38:22;;;;;;;8.75;5.30;;;11.30;99.90;;;;;;5036548;28;20032;-76
2022/05/20 00:40:51;;;;;;;10.30;5.10;;;11.30;99.90;;;;;;5036432;28;20071;-76
2022/05/20 00:43:28;;;;;;;8.95;4.93;;;11.80;99.90;;;;;;5036339;28;20027;-75
2022/05/20 00:45:57;;;;;;;7.85;4.10;;;11.30;99.90;;;;;;5036362;28;20107;-75
2022/05/20 00:48:23;;;;;;;13.30;5.40;;;11.30;99.90;;;;;;5036634;28;20064;-75
2022/05/20 00:50:55;;;;;;;9.60;5.15;;;11.30;99.90;;;;;;5036834;28;20473;-76
2022/05/20 00:53:23;;;;;;;10.10;4.43;;;11.30;99.90;;;;;;5034642;28;20029;-75
2022/05/20 00:55:49;;;;;;;10.05;4.65;;;11.30;99.90;;;;;;5036097;28;20080;-76
2022/05/20 00:58:23;;;;;;;9.30;5.32;;;11.30;99.90;;;;;;5034548;28;20021;-75
2022/05/20 01:00:52;;;;;;;8.63;4.68;;;11.20;99.90;;;;;;5035765;28;20037;-75
2022/05/20 01:03:21;;;;;;;6.55;4.40;;;11.20;99.90;;;;;;5035385;28;20022;-78
2022/05/20 01:05:49;;;;;;;9.85;5.22;;;11.30;99.90;;;;;;5034481;28;20029;-76
2022/05/20 01:08:21;;;;;;;;;;;11.30;99.90;;;;;;5036121;28;20028;-75
2022/05/20 01:10:46;;;;;;;8.73;4.32;;;11.30;99.90;;;;;;5034584;28;19905;-76
2022/05/20 01:13:14;;;;;;;8.25;4.47;;;11.30;99.90;;;;;;5035509;28;20029;-76
2022/05/20 01:15:41;;;;;;;8.05;3.63;;;11.20;99.90;;;;;;5034430;28;20018;-76
2022/05/20 01:18:07;;;;;;;6.85;3.83;;;11.90;99.90;;;;;;5035957;28;20063;-76
2022/05/20 01:20:45;;;;;;;13.40;4.35;;;11.20;99.90;;;;;;5036338;28;20131;-76
2022/05/20 01:23:14;;;;;;;6.43;3.45;;;11.10;99.90;;;;;;5036534;28;20021;-76
2022/05/20 01:25:47;;;;;;;10.57;3.58;;;11.10;99.90;;;;;;5034472;28;20392;-76
2022/05/20 01:28:12;;;;;;;6.47;3.15;;;11.10;99.90;;;;;;5035788;28;20032;-76
2022/05/20 01:30:43;;;;;;;5.97;3.45;;;11.10;99.90;;;;;;5035589;28;20029;-76
2022/05/20 01:33:10;;;;;;;6.25;2.75;;;11.10;99.90;;;;;;5033891;28;20025;-76
2022/05/20 01:35:42;;;;;;;8.27;3.42;;;11.00;99.90;;;;;;5035356;28;20025;-76
2022/05/20 01:38:10;;;;;;;4.22;2.30;;;11.10;99.90;;;;;;5035189;28;20026;-76
2022/05/20 01:40:47;;;;;;;6.10;2.38;;;11.10;99.90;;;;;;5035112;28;20100;-76
2022/05/20 01:43:31;;;;;;;3.47;2.10;;;11.00;99.90;;;;;;5034194;28;20021;-76
2022/05/20 01:46:17;;;;;;;4.22;2.03;;;11.00;99.90;;;;;;5035230;28;20028;-75
2022/05/20 01:49:08;;;;;;;4.93;1.80;;;10.90;99.90;;;;;;5033759;28;20030;-76
2022/05/20 01:51:55;;;;;;;5.35;2.40;;;10.90;99.90;;;;;;5034939;28;20025;-75
2022/05/20 01:54:32;;;;;;;5.18;2.30;;;10.80;99.90;;;;;;5034943;28;20152;-76
2022/05/20 01:57:34;;;;;;;3.58;1.95;;;10.80;99.90;;;;;;5034626;28;20053;-76
2022/05/20 02:00:16;;;;;;;5.90;2.53;;;10.80;99.90;;;;;;5033329;28;20029;-76
2022/05/20 02:02:59;;;;;;;5.22;2.33;;;10.70;99.90;;;;;;5034368;28;20026;-76
2022/05/20 02:05:51;;;;;;;3.15;2.13;;;10.70;99.90;;;;;;5034473;28;20156;-76
2022/05/20 02:08:23;;;;;;;3.17;1.98;;;10.70;99.90;;;;;;5022634;28;20029;-75
2022/05/20 02:11:15;;;;;;;3.83;2.20;;;10.60;99.90;;;;;;5034550;28;20030;-76
2022/05/20 02:13:49;;;;;;;4.15;2.42;;;10.60;99.90;;;;;;5032375;28;20022;-76
2022/05/20 02:16:19;;;;;;;5.25;2.50;;;10.50;99.90;;;;;;5033323;28;20032;-75
2022/05/20 02:19:08;;;;;;;4.75;2.80;;;10.50;99.90;;;;;;5035136;28;20108;-75
2022/05/20 02:21:37;;;;;;;;;;;10.50;99.90;;;;;;5028336;28;20041;-76
2022/05/20 02:24:07;;;;;;;4.05;2.13;;;10.50;99.90;;;;;;5033094;28;19904;-76
2022/05/20 02:26:40;;;;;;;5.03;2.60;;;10.50;99.90;;;;;;5034093;28;20029;-76
2022/05/20 02:29:13;;;;;;;6.35;3.15;;;10.40;99.90;;;;;;5034727;28;20033;-76
2022/05/20 02:31:52;;;;;;;4.93;3.10;;;10.30;99.90;;;;;;5032808;28;20025;-76
2022/05/20 02:34:17;;;;;;;5.10;2.78;;;10.30;99.90;;;;;;5032739;28;20017;-75
2022/05/20 02:36:43;;;;;;;4.40;3.05;;;10.30;99.90;;;;;;5034436;28;20029;-76
2022/05/20 02:39:15;;;;;;;4.72;3.05;;;10.30;99.90;;;;;;5034080;28;20037;-75
2022/05/20 02:41:43;;;;;;;4.68;2.63;;;10.30;99.90;;;;;;5032594;28;20048;-76
2022/05/20 02:44:09;;;;;;;4.35;2.70;;;10.30;99.90;;;;;;5034148;28;20500;-76
2022/05/20 02:46:36;;;;;;;4.47;2.63;;;10.30;99.90;;;;;;5032637;28;20109;-75
2022/05/20 02:49:02;;;;;;;5.72;2.47;;;11.00;99.90;;;;;;5033987;28;20022;-76
2022/05/20 02:51:28;;;;;;;6.63;3.08;;;10.30;99.90;;;;;;5033779;28;20358;-75
2022/05/20 02:53:53;;;;;;;6.55;3.17;;;10.30;99.90;;;;;;5033782;28;20078;-76
2022/05/20 02:56:19;;;;;;;5.55;2.85;;;10.20;99.90;;;;;;5034115;28;20021;-76
2022/05/20 03:04:13;;;;;;;8.80;3.38;;;10.10;99.90;;;;;;5033964;28;20039;-76
2022/05/20 03:06:48;;;;;;;6.78;3.05;;;10.10;99.90;;;;;;5032498;28;20031;-75
2022/05/20 03:09:18;;;;;;;5.57;3.42;;;10.10;99.90;;;;;;5032446;28;20029;-76
2022/05/20 03:11:44;;;;;;;6.78;3.92;;;10.10;99.90;;;;;;5033723;28;20034;-76
2022/05/20 03:14:13;;;;;;;5.68;3.42;;;10.10;99.90;;;;;;5033546;28;20036;-76
2022/05/20 03:16:39;;;;;;;;;;;10.00;99.90;;;;;;5032664;28;20060;-76
2022/05/20 03:19:06;;;;;;;7.30;3.80;;;10.00;99.90;;;;;;5033504;28;20268;-76
2022/05/20 03:21:33;;;;;;;5.43;3.30;;;10.00;99.90;;;;;;5033422;28;20026;-76
2022/05/20 03:24:02;;;;;;;8.05;3.13;;;10.00;99.90;;;;;;5033699;28;20024;-76
2022/05/20 03:26:29;;;;;;;8.55;3.80;;;9.90;99.90;;;;;;5037758;28;20377;-76
2022/05/20 03:28:57;;;;;;;6.28;3.58;;;9.90;99.90;;;;;;5037591;28;20461;-76
2022/05/20 03:31:23;;;;;;;5.88;3.53;;;9.90;99.90;;;;;;5036405;28;20029;-76
2022/05/20 03:33:48;;;;;;;7.88;4.00;;;9.90;99.90;;;;;;5037475;28;20389;-76
2022/05/20 03:36:14;;;;;;;6.00;3.53;;;9.90;99.90;;;;;;5036066;28;20021;-76
2022/05/20 03:38:40;;;;;;;7.70;3.95;;;9.90;99.90;;;;;;5037181;28;20013;-76
2022/05/20 03:41:06;;;;;;;6.97;4.05;;;9.90;99.90;;;;;;5037016;28;20030;-76
2022/05/20 03:43:33;;;;;;;7.82;5.45;;;9.90;99.90;;;;;;5037277;28;20103;-76
2022/05/20 03:45:59;;;;;;;7.07;4.20;;;9.90;99.90;;;;;;5037216;28;20025;-76
2022/05/20 03:48:25;;;;;;;8.13;3.90;;;9.90;99.90;;;;;;5036974;28;20472;-76
2022/05/20 03:50:51;;;;;;;8.77;4.60;;;9.90;99.90;;;;;;5037174;28;20032;-76
2022/05/20 03:53:17;;;;;;;10.38;4.68;;;9.90;99.90;;;;;;5037230;28;20029;-76
2022/05/20 03:55:43;;;;;;;5.90;4.05;;;9.90;99.90;;;;;;5035459;28;20476;-76
2022/05/20 03:58:09;;;;;;;8.20;4.32;;;9.90;99.90;;;;;;5036929;28;20043;-76
2022/05/20 04:03:24;;;;;;;9.70;4.63;;;10.00;99.90;;;;;;5036708;28;20083;-76
2022/05/20 04:05:49;;;;;;;7.60;4.03;;;10.00;99.90;;;;;;5036941;28;20164;-76
2022/05/20 04:08:16;;;;;;;8.85;4.55;;;10.10;99.90;;;;;;5036839;28;20068;-75
2022/05/20 04:10:41;;;;;;;8.60;5.18;;;10.10;99.90;;;;;;5035522;28;20032;-76
2022/05/20 04:13:08;;;;;;;6.53;4.28;;;10.20;99.90;;;;;;5035256;28;20038;-75
2022/05/20 04:15:33;;;;;;;10.23;5.35;;;10.20;99.90;;;;;;5036620;28;20021;-76
2022/05/20 04:17:59;;;;;;;9.70;5.80;;;10.30;99.90;;;;;;5036821;28;20041;-76
2022/05/20 04:20:25;;;;;;;9.88;5.10;;;10.30;99.90;;;;;;5035069;28;20028;-76
2022/05/20 04:22:50;;;;;;;8.85;5.15;;;10.30;99.90;;;;;;5036284;28;20030;-76
2022/05/20 04:25:16;;;;;;;11.52;5.47;;;10.30;99.90;;;;;;5036316;28;20018;-76
2022/05/20 04:27:41;;;;;;;8.20;5.63;;;10.30;99.90;;;;;;5036339;28;20014;-76
2022/05/20 04:30:08;;;;;;;12.30;5.53;;;10.30;99.90;;;;;;5036259;28;20033;-76
2022/05/20 04:32:34;;;;;;;10.00;5.47;;;10.40;99.90;;;;;;5034959;28;20029;-76
2022/05/20 04:34:59;;;;;;;9.27;5.65;;;10.50;99.90;;;;;;5035958;28;20469;-76
2022/05/20 04:37:26;;;;;;;8.77;5.68;;;10.50;99.90;;;;;;5035318;28;20056;-76
2022/05/20 04:39:52;;;;;;;11.98;5.78;;;10.60;99.90;;;;;;5034780;28;20542;-76
2022/05/20 04:47:46;;;;;;;10.55;5.82;;;10.70;99.90;;;;;;5036979;28;20048;-76
2022/05/20 04:50:12;;;;;;;12.40;5.40;;;10.80;99.90;;;;;;5036231;28;20476;-76
2022/05/20 04:52:38;;;;;;;11.68;4.75;;;10.80;99.90;;;;;;5036188;28;20025;-75
2022/05/20 04:55:04;;;;;;;9.98;5.53;;;10.90;99.90;;;;;;5036145;28;20052;-76
2022/05/20 04:57:43;;;;;;;10.90;5.85;;;11.00;99.90;;;;;;5035761;28;20104;-76
2022/05/20 05:00:15;;;;;;;13.23;5.55;;;11.10;99.90;;;;;;5036176;28;20416;-76
2022/05/20 05:02:41;;;;;;;12.80;6.15;;;11.20;99.90;;;;;;5034624;28;20029;-76
2022/05/20 05:05:10;;;;;;;12.38;6.68;;;11.30;99.90;;;;;;5035907;28;20071;-76
2022/05/20 05:07:44;;;;;;;14.05;8.30;;;11.50;99.90;;;;;;5035648;28;20025;-76
2022/05/20 05:10:14;;;;;;;12.90;7.65;;;11.60;99.90;;;;;;5034439;28;20079;-76
2022/05/20 05:12:39;;;;;;;17.02;7.32;;;11.70;99.90;;;;;;5035396;28;20034;-77
2022/05/20 05:15:06;;;;;;;15.40;8.48;;;11.80;99.90;;;;;;5035500;28;20108;-76
2022/05/20 05:20:20;;;;;;;19.67;10.38;;;12.00;99.90;;;;;;5035974;28;20083;-77
2022/05/20 05:22:48;;;;;;;12.13;7.43;;;12.10;99.90;;;;;;5037784;28;20014;-77
2022/05/20 05:25:14;;;;;;;17.60;10.27;;;12.40;99.90;;;;;;5037797;28;20112;-77
2022/05/20 05:27:40;;;;;;;23.55;11.05;;;12.80;99.90;;;;;;5037975;28;20017;-78
2022/05/20 05:30:08;;;;;;;25.23;12.02;;;13.10;99.90;;;;;;5037689;28;20095;-78
2022/05/20 05:32:35;;;;;;;22.27;11.60;;;13.10;99.90;;;;;;5037245;28;20116;-78
2022/05/20 05:35:01;;;;;;;21.05;11.05;;;13.20;99.90;;;;;;5038209;28;20054;-77
2022/05/20 05:37:27;;;;;;;23.65;11.60;;;13.40;99.90;;;;;;5038474;28;20040;-74
2022/05/20 05:39:52;;;;;;;20.98;11.02;;;13.50;99.90;;;;;;5033464;28;20034;-74
2022/05/20 05:42:20;;;;;;;19.77;10.57;;;13.60;99.90;;;;;;5034965;28;20091;-74
2022/05/20 05:44:46;;;;;;;21.47;12.53;;;13.70;99.90;;;;;;5039801;28;20018;-75
2022/05/20 05:47:12;;;;;;;19.35;11.13;;;13.80;99.90;;;;;;5036342;28;20025;-75
2022/05/20 05:49:37;;;;;;;22.50;12.65;;;13.90;99.90;;;;;;5036790;28;20034;-76
2022/05/20 05:52:04;;;;;;;24.10;12.05;;;14.20;99.90;;;;;;5035628;28;20116;-75
2022/05/20 05:54:30;;;;;;;21.45;11.57;;;14.40;99.90;;;;;;5036636;28;20403;-76
2022/05/20 05:56:56;;;;;;;21.50;11.25;;;14.50;99.90;;;;;;5035290;28;20025;-75
2022/05/20 05:59:22;;;;;;;19.75;11.48;;;14.70;99.90;;;;;;5035037;28;20025;-75
2022/05/20 06:01:47;;;;;;;19.88;11.57;;;14.90;99.90;;;;;;5036047;28;20017;-75
2022/05/20 06:04:13;;;;;;;19.98;12.30;;;16.10;99.90;;;;;;5035277;28;20018;-75
2022/05/20 06:06:38;;;;;;;20.77;11.52;;;14.70;99.90;;;;;;5035638;28;20018;-74
2022/05/20 06:09:04;;;;;;;16.40;10.50;;;14.70;99.90;;;;;;5034866;28;20024;-74
2022/05/20 06:11:30;;;;;;;17.88;10.98;;;14.70;99.90;;;;;;5033506;28;20044;-74
2022/05/20 06:13:56;;;;;;;18.80;10.32;;;14.60;99.90;;;;;;5035107;28;20381;-74
2022/05/20 06:16:21;;;;;;;23.20;11.52;;;14.70;99.90;;;;;;5038518;28;20025;-74
2022/05/20 06:18:48;;;;;;;17.90;10.45;;;14.70;99.90;;;;;;5033272;28;20112;-74
2022/05/20 06:21:14;;;;;;;18.73;9.70;;;14.80;99.90;;;;;;5034882;28;20435;-74
2022/05/20 06:23:40;;;;;;;17.10;9.35;;;14.90;99.90;;;;;;5034703;28;20072;-74
2022/05/20 06:26:06;;;;;;;14.50;7.93;;;15.00;99.90;;;;;;5034702;28;20021;-74
2022/05/20 06:28:31;;;;;;;14.25;7.78;;;15.10;99.90;;;;;;5033687;28;20060;-75
2022/05/20 06:30:57;;;;;;;13.98;7.85;;;15.20;99.90;;;;;;5058337;23;20045;-77
2022/05/20 06:33:24;;;;;;;11.48;6.35;;;15.90;99.90;;;;;;5053610;28;20017;-77
2022/05/20 06:41:20;;;;;;;17.83;7.00;;;15.70;99.90;;;;;;5054335;28;20036;-77
2022/05/20 06:43:46;;;;;;;13.27;6.78;;;15.80;99.90;;;;;;5054128;28;20383;-77
2022/05/20 06:46:12;;;;;;;16.05;6.88;;;15.90;99.90;;;;;;5055315;28;20017;-77
2022/05/20 06:48:43;;;;;;;11.27;6.38;;;16.00;99.90;;;;;;5056456;28;20021;-77
2022/05/20 06:51:10;;;;;;;11.93;5.43;;;16.20;99.90;;;;;;5055778;28;20053;-78
2022/05/20 06:53:36;;;;;;;11.60;5.18;;;16.30;99.90;;;;;;5056117;28;20021;-78
2022/05/20 06:56:02;;;;;;;10.88;5.55;;;16.50;99.90;;;;;;5055183;28;20036;-78
2022/05/20 06:58:28;;;;;;;12.52;5.20;;;16.70;99.90;;;;;;5053965;28;20078;-77
2022/05/20 07:00:54;;;;;;;10.32;4.00;;;16.80;99.90;;;;;;5053587;28;20596;-77
2022/05/20 07:03:22;;;;;;;8.05;4.00;;;16.90;99.90;;;;;;5052670;28;20486;-76
2022/05/20 07:05:48;;;;;;;5.97;3.17;;;17.10;99.90;;;;;;5053114;28;20021;-76
2022/05/20 07:08:14;;;;;;;4.85;2.63;;;17.00;99.90;;;;;;5054396;28;20513;-76
2022/05/20 07:10:40;;;;;;;4.32;2.05;;;17.00;99.90;;;;;;5054128;28;20061;-76
2022/05/20 07:13:06;;;;;;;4.57;2.45;;;17.10;99.90;;;;;;5054006;28;20017;-76
2022/05/20 07:15:32;;;;;;;9.20;1.83;;;17.20;99.90;;;;;;5052713;28;20021;-76
2022/05/20 07:17:58;;;;;;;4.82;2.63;;;17.10;99.90;;;;;;5054087;28;20079;-76
2022/05/20 07:20:24;;;;;;;5.00;2.17;;;17.10;99.90;;;;;;5053855;28;20026;-76
2022/05/20 07:22:50;;;;;;;3.53;1.58;;;17.00;99.90;;;;;;5054168;28;20024;-76
2022/05/20 07:25:16;;;;;;;4.78;1.55;;;16.90;99.90;;;;;;5053926;28;20029;-75
2022/05/20 07:27:41;;;;;;;3.35;1.65;;;16.90;99.90;;;;;;5054012;28;20383;-75
2022/05/20 07:30:08;;;;;;;6.00;2.25;;;17.10;99.90;;;;;;5052546;28;20037;-75
2022/05/20 07:32:33;;;;;;;6.90;2.00;;;16.90;99.90;;;;;;5053936;28;20510;-76
2022/05/20 07:34:59;;;;;;;9.73;1.98;;;17.30;99.90;;;;;;5052493;28;20021;-75
2022/05/20 07:37:25;;;;;;;3.58;1.70;;;17.50;99.90;;;;;;5054148;28;20028;-76
2022/05/20 07:39:50;;;;;;;2.20;1.85;;;16.90;99.90;;;;;;5052103;28;20025;-76
2022/05/20 07:42:16;;;;;;;6.13;2.35;;;16.90;99.90;;;;;;5054197;28;20052;-75
2022/05/20 07:44:42;;;;;;;3.28;1.88;;;17.00;99.90;;;;;;5053885;28;20472;-76
2022/05/20 07:47:08;;;;;;;6.13;1.80;;;17.00;99.90;;;;;;5052307;28;20009;-75
2022/05/20 07:49:34;;;;;;;7.13;2.25;;;17.20;99.90;;;;;;5052338;28;20029;-76
2022/05/20 07:52:03;;;;;;;5.15;1.48;;;17.50;99.90;;;;;;5053817;28;20391;-76
2022/05/20 07:54:34;;;;;;;9.88;1.60;;;17.80;99.90;;;;;;5054224;28;20060;-77
2022/05/20 07:57:03;;;;;;;3.40;0.98;;;18.20;99.90;;;;;;5054263;28;20025;-77
2022/05/20 07:59:37;;;;;;;4.18;1.20;;;18.30;99.90;;;;;;5055085;28;20029;-77
2022/05/20 08:02:03;;;;;;;4.70;1.20;;;18.50;99.90;;;;;;5055438;28;20033;-78
2022/05/20 08:04:53;;;;;;;3.00;0.85;;;18.60;99.90;;;;;;5054404;28;20017;-77
2022/05/20 08:07:20;;;;;;;1.60;0.55;;;18.70;99.90;;;;;;5053477;28;20021;-77
2022/05/20 08:09:46;;;;;;;6.05;1.25;;;18.80;99.90;;;;;;5053645;28;20028;-77
2022/05/20 08:12:12;;;;;;;3.65;1.55;;;18.80;99.90;;;;;;5056039;28;20021;-76
2022/05/20 08:14:38;;;;;;;5.18;1.60;;;19.00;99.90;;;;;;5057399;28;20025;-77
2022/05/20 08:17:04;;;;;;;3.10;1.20;;;19.10;99.90;;;;;;5056324;28;20017;-77
2022/05/20 08:19:30;;;;;;;3.50;1.13;;;19.30;99.90;;;;;;5057365;28;20037;-77
2022/05/20 08:21:56;;;;;;;2.08;1.40;;;19.60;99.90;;;;;;5058172;28;20025;-77
2022/05/20 08:24:22;;;;;;;2.70;1.50;;;19.80;99.90;;;;;;5059043;28;20079;-78
2022/05/20 08:26:48;;;;;;;3.88;1.80;;;20.00;99.90;;;;;;5059307;28;20467;-78
2022/05/20 08:29:14;;;;;;;3.70;1.60;;;20.20;99.90;;;;;;5057914;28;20056;-77
2022/05/20 08:31:41;;;;;;;3.05;1.08;;;20.00;99.90;;;;;;5059610;28;20048;-78
2022/05/20 08:34:07;;;;;;;2.13;1.58;;;20.10;99.90;;;;;;5059824;28;20025;-78
2022/05/20 08:36:33;;;;;;;3.25;1.45;;;20.20;99.90;;;;;;5058604;28;20391;-78
2022/05/20 08:38:58;;;;;;;7.78;1.40;;;20.30;99.90;;;;;;5060008;28;20383;-78
2022/05/20 08:41:33;;;;;;;6.78;1.65;;;20.50;99.90;;;;;;5059758;28;20033;-77
2022/05/20 08:43:59;;;;;;;3.83;1.35;;;20.50;99.90;;;;;;5058245;28;20549;-78
2022/05/20 08:46:25;;;;;;;5.55;1.95;;;20.60;99.90;;;;;;5058492;28;20017;-77
2022/05/20 08:48:53;;;;;;;5.90;2.00;;;20.80;99.90;;;;;;5058427;28;20071;-77
2022/05/20 08:51:21;;;;;;;6.78;1.88;;;20.90;99.90;;;;;;5057287;28;20024;-78
2022/05/20 08:53:51;;;;;;;5.10;1.60;;;20.90;99.90;;;;;;5058015;28;20032;-78
2022/05/20 08:56:25;;;;;;;2.13;0.68;;;20.90;99.90;;;;;;5056856;28;20025;-78
2022/05/20 08:59:01;;;;;;;2.83;0.73;;;21.00;99.90;;;;;;5057706;28;20025;-77
2022/05/20 09:01:32;;;;;;;7.28;1.70;;;21.10;99.90;;;;;;5056090;28;20029;-78
2022/05/20 09:03:58;;;;;;;5.22;1.00;;;21.20;99.90;;;;;;5057910;28;20056;-78
2022/05/20 09:06:25;;;;;;;2.30;0.73;;;21.20;98.30;;;;;;5057859;28;20483;-78
2022/05/20 09:09:12;;;;;;;6.00;1.05;;;21.20;97.60;;;;;;5055868;28;20024;-77
2022/05/20 09:11:40;;;;;;;5.65;0.55;;;21.20;96.50;;;;;;5058801;28;20021;-77
2022/05/20 09:17:12;;;;;;;4.47;1.00;;;21.40;94.90;;;;;;5061533;28;20105;-80
2022/05/20 09:19:52;;;;;;;9.18;0.65;;;21.30;93.20;;;;;;5060981;28;20036;-79
2022/05/20 09:22:24;;;;;;;2.15;0.20;;;21.50;91.90;;;;;;5060289;28;20024;-78
2022/05/20 09:24:49;;;;;;;3.40;0.25;;;21.40;92.80;;;;;;5059839;28;20017;-79
2022/05/20 09:27:36;;;;;;;4.70;0.35;;;21.50;93.30;;;;;;5061220;28;20013;-79
2022/05/20 09:30:06;;;;;;;2.50;0.80;;;21.50;91.40;;;;;;5059865;28;20045;-79
2022/05/20 09:32:41;;;;;;;4.03;0.40;;;21.50;91.10;;;;;;5058630;28;20032;-78
2022/05/20 09:35:18;;;;;;;2.92;0.93;;;21.50;91.70;;;;;;5056244;28;20029;-77
2022/05/20 09:37:46;;;;;;;4.32;2.05;;;21.50;92.30;;;;;;5057191;28;20388;-77
2022/05/20 09:40:31;;;;;;;8.60;0.93;;;21.60;91.90;;;;;;5056830;28;20049;-78
2022/05/20 09:43:05;;;;;;;3.30;1.00;;;21.60;92.90;;;;;;5055686;28;20070;-78
2022/05/20 09:45:47;;;;;;;2.30;1.15;;;21.70;93.60;;;;;;5057042;28;20521;-77
2022/05/20 09:48:45;;;;;;;2.20;0.60;;;21.90;92.60;;;;;;5057285;28;20463;-77
2022/05/20 09:51:19;;;;;;;1.65;0.38;;;22.10;86.90;;;;;;5055412;28;20518;-76
2022/05/20 09:54:12;;;;;;;2.53;0.50;;;22.30;87.00;;;;;;5054976;28;20029;-75
2022/05/20 09:56:45;;;;;;;5.78;0.80;;;22.30;87.60;;;;;;5055535;28;20021;-75
2022/05/20 09:59:29;;;;;;;5.18;0.20;;;22.40;87.30;;;;;;5054414;28;20407;-75
2022/05/20 10:02:07;;;;;;;4.78;0.47;;;22.60;81.90;;;;;;5055882;28;20029;-76
2022/05/20 10:05:04;;;;;;;1.60;0.30;;;22.80;80.40;;;;;;5054371;28;20030;-75
2022/05/20 10:07:57;;;;;;;5.13;1.15;;;22.90;79.70;;;;;;5055592;28;20488;-75
2022/05/20 10:10:45;;;;;;;3.50;0.75;;;23.00;79.50;;;;;;5055468;28;20060;-75
2022/05/20 10:13:24;;;;;;;2.65;0.60;;;23.00;82.20;;;;;;5055241;28;20035;-75
2022/05/20 10:15:56;;;;;;;3.78;0.60;;;22.90;78.80;;;;;;5055374;28;20111;-76
2022/05/20 10:18:58;;;;;;;2.50;1.13;;;22.80;80.20;;;;;;5055297;28;20032;-76
2022/05/20 10:21:44;;;;;;;1.90;0.77;;;22.70;79.30;;;;;;5001527;28;20042;-76
2022/05/20 10:24:31;;;;;;;2.20;0.60;;;22.60;81.50;;;;;;5054854;28;20555;-76
2022/05/20 10:27:04;;;;;;;1.73;0.95;;;22.50;83.20;;;;;;5056287;28;20064;-75
2022/05/20 10:32:34;;;;;;;4.40;0.77;;;22.60;82.70;;;;;;5055382;28;20036;-75
2022/05/20 10:35:01;;;;;;;4.43;0.55;;;22.50;82.00;;;;;;5053522;28;20025;-75
2022/05/20 10:37:40;;;;;;;1.17;0.57;;;22.40;82.70;;;;;;5053331;28;20044;-75
2022/05/20 10:40:28;;;;;;;2.03;0.75;;;22.40;82.50;;;;;;5057264;28;20025;-77
2022/05/20 10:43:11;;;;;;;7.18;1.13;;;22.30;85.80;;;;;;5054858;28;20523;-77
2022/05/20 10:49:17;;;;;;;1.25;0.43;;;22.50;85.80;;;;;;5054534;28;20040;-77
2022/05/20 10:52:07;;;;;;;2.70;0.70;;;22.70;84.90;;;;;;5055433;28;20053;-77
2022/05/20 10:54:51;;;;;;;1.27;0.52;;;23.00;86.70;;;;;;5057403;28;20028;-79
2022/05/20 10:57:36;;;;;;;1.75;0.77;;;23.20;85.80;;;;;;5056886;28;20023;-77
2022/05/20 11:00:09;;;;;;;4.10;1.00;;;23.20;82.60;;;;;;5056948;28;20113;-77
2022/05/20 11:03:05;;;;;;;2.60;0.20;;;23.10;82.50;;;;;;5055844;28;20036;-77
2022/05/20 11:05:40;;;;;;;1.35;0.57;;;23.00;85.60;;;;;;5057092;28;20128;-78
2022/05/20 11:08:45;;;;;;;2.35;0.40;;;23.00;83.60;;;;;;5056487;28;20025;-78
2022/05/20 11:11:24;;;;;;;2.30;0.22;;;23.00;81.40;;;;;;5056480;28;20032;-77
2022/05/20 11:14:12;;;;;;;6.00;0.45;;;23.00;81.40;;;;;;5056575;28;20021;-78
2022/05/20 11:16:43;;;;;;;;;;;23.00;81.50;;;;;;5057692;28;20036;-78
2022/05/20 11:19:15;;;;;;;2.90;0.65;;;23.00;81.50;;;;;;5056514;28;19911;-77
2022/05/20 11:22:19;;;;;;;0.93;0.15;;;23.10;84.60;;;;;;5056405;28;20025;-78
2022/05/20 11:25:14;;;;;;;5.60;1.35;;;23.00;85.10;;;;;;5055514;28;20496;-78
2022/05/20 11:27:58;;;;;;;1.75;0.25;;;23.10;84.00;;;;;;5052832;28;20124;-78
2022/05/20 11:30:45;;;;;;;9.93;1.20;;;23.10;84.40;;;;;;5055906;28;20060;-78
2022/05/20 11:33:32;;;;;;;3.50;0.40;;;23.20;83.10;;;;;;5055705;28;20178;-78
2022/05/20 11:36:08;;;;;;;2.97;0.82;;;23.30;82.90;;;;;;5056753;28;20025;-78
2022/05/20 11:38:45;;;;;;;5.65;0.93;;;23.40;82.40;;;;;;5056459;28;20377;-78
2022/05/20 11:41:25;;;;;;;3.08;0.50;;;23.40;81.60;;;;;;5054769;28;20033;-78
2022/05/20 11:44:20;;;;;;;5.80;0.38;;;23.50;80.80;;;;;;5056936;28;20040;-78
2022/05/20 11:47:14;;;;;;;0.60;0.10;;;23.40;81.80;;;;;;5058031;28;20112;-78
2022/05/20 11:49:42;;;;;;;3.83;0.50;;;23.30;82.00;;;;;;5060890;28;20032;-78
2022/05/20 11:52:14;;;;;;;2.88;0.30;;;23.20;81.30;;;;;;5060295;28;20028;-77
2022/05/20 11:55:01;;;;;;;2.17;0.38;;;23.00;83.90;;;;;;5059400;28;20056;-78
2022/05/20 11:57:32;;;;;;;4.73;0.57;;;22.80;84.50;;;;;;5060400;28;20075;-78
2022/05/20 12:00:05;;;;;;;1.80;0.57;;;22.50;86.90;;;;;;5060100;28;20025;-78
2022/05/20 12:02:53;;;;;;;1.77;0.45;;;22.20;88.40;;;;;;5060236;28;20025;-78
2022/05/20 12:05:24;;;;;;;3.72;0.70;;;22.00;90.30;;;;;;5061018;28;20044;-78
2022/05/20 12:07:50;;;;;;;1.23;0.70;;;21.70;91.60;;;;;;5058742;28;20070;-78
2022/05/20 12:10:31;;;;;;;1.58;0.47;;;21.40;92.00;;;;;;5059548;28;20544;-78
2022/05/20 12:13:22;;;;;;;4.75;0.98;;;21.20;93.60;;;;;;5060155;28;20029;-78
2022/05/20 12:16:09;;;;;;;1.65;0.60;;;21.00;93.40;;;;;;5059244;28;20105;-78
2022/05/20 12:24:41;;;;;;;2.15;0.35;;;20.40;95.30;;;;;;5058917;28;20040;-77
2022/05/20 12:27:37;;;;;;;0.70;0.30;;;20.30;95.50;;;;;;5058861;28;20021;-74
2022/05/20 12:30:15;;;;;;;1.80;0.30;;;20.10;97.40;;;;;;5050958;28;20045;-74
2022/05/20 12:32:44;;;;;;;3.33;0.65;;;19.80;99.60;;;;;;5056854;28;20029;-75
2022/05/20 12:35:12;;;;;;;2.97;0.32;;;19.60;99.90;;;;;;5055448;28;20021;-76
2022/05/20 12:37:44;;;;;;;5.07;1.35;;;19.40;99.90;;;;;;5057867;28;20372;-75
2022/05/20 12:40:18;;;;;;;4.70;1.52;;;19.20;99.90;;;;;;5055114;28;20033;-76
2022/05/20 12:42:59;;;;;;;7.15;1.52;;;18.90;99.90;;;;;;5055404;28;20025;-74
2022/05/20 12:45:27;;;;;;;8.77;2.47;;;18.60;99.90;;;;;;5056764;28;20025;-74
2022/05/20 12:47:54;;;;;;;5.75;2.00;;;18.30;99.90;;;;;;5056755;28;20051;-74
2022/05/20 12:50:23;;;;;;;11.15;2.60;;;18.00;99.90;;;;;;5057325;28;20021;-75
2022/05/20 12:52:57;;;;;;;6.32;2.35;;;17.70;99.90;;;;;;5056719;28;20119;-74
2022/05/20 12:55:50;;;;;;;10.30;3.47;;;17.50;99.90;;;;;;5056614;28;20412;-74
2022/05/20 12:58:23;;;;;;;9.25;3.67;;;17.20;99.90;;;;;;5053824;28;20061;-74
2022/05/20 13:00:51;;;;;;;7.57;3.00;;;17.20;99.90;;;;;;5056566;28;20396;-74
2022/05/20 13:03:19;;;;;;;7.88;3.30;;;17.10;99.90;;;;;;5056373;28;20480;-74
2022/05/20 13:05:52;;;;;;;12.68;4.15;;;17.10;99.90;;;;;;5055185;28;20037;-74
2022/05/20 13:08:21;;;;;;;8.68;3.75;;;17.10;99.90;;;;;;5056563;28;20100;-74
2022/05/20 13:10:47;;;;;;;9.20;3.80;;;17.10;99.90;;;;;;5054984;28;20027;-74
2022/05/20 13:13:22;;;;;;;8.68;3.90;;;17.50;99.90;;;;;;5056351;28;20060;-74
2022/05/20 13:16:10;;;;;;;8.38;3.50;;;17.00;99.90;;;;;;5056971;28;20104;-74
2022/05/20 13:18:39;;;;;;;9.43;3.83;;;16.90;99.90;;;;;;5056238;28;20052;-74
2022/05/20 13:21:15;;;;;;;8.23;4.22;;;17.00;99.90;;;;;;5054831;28;20127;-74
2022/05/20 13:23:44;;;;;;;11.15;4.40;;;16.80;99.90;;;;;;5056203;28;20444;-74
2022/05/20 13:26:22;;;;;;;;;;;16.70;99.90;;;;;;5055926;28;20486;-74
2022/05/20 13:28:49;;;;;;;9.63;3.72;;;16.70;99.90;;;;;;5055375;28;19913;-75
2022/05/20 13:31:24;;;;;;;10.57;5.00;;;16.60;99.90;;;;;;5054308;28;20061;-74
2022/05/20 13:33:51;;;;;;;9.75;4.22;;;16.60;99.90;;;;;;5055033;28;20079;-74
2022/05/20 13:36:22;;;;;;;9.70;4.25;;;16.60;99.90;;;;;;5055126;28;20029;-74
2022/05/20 13:39:13;;;;;;;8.02;3.35;;;14.20;99.90;;;;;;5054993;28;20459;-74
2022/05/20 13:41:39;;;;;;;7.63;3.72;;;16.40;99.90;;;;;;5054141;28;20429;-74
2022/05/20 13:44:07;;;;;;;7.28;4.03;;;16.40;99.90;;;;;;5053774;28;20049;-74
2022/05/20 13:49:20;;;;;;;14.82;5.00;;;16.20;99.90;;;;;;5055721;28;20032;-74